sensor_id;sensor_type;location;lat;lon;timestamp;temperature;humidity
47813;DHT22;34221;45.296;9.516;2023-02-01T00:00:08;4.90;86.60
47813;DHT22;34221;45.296;9.516;2023-02-01T00:00:23;4.90;86.90
47813;DHT22;34221;45.296;9.516;2023-02-01T00:00:38;5.00;86.90
47813;DHT22;34221;45.296;9.516;2023-02-01T00:00:53;5.00;86.70
47813;DHT22;34221;45.296;9.516;2023-02-01T00:01:09;5.00;86.60
47813;DHT22;34221;45.296;9.516;2023-02-01T00:01:24;5.00;86.80
47813;DHT22;34221;45.296;9.516;2023-02-01T00:01:39;5.00;86.90
47813;DHT22;34221;45.296;9.516;2023-02-01T00:01:54;5.00;86.80
47813;DHT22;34221;45.296;9.516;2023-02-01T00:02:09;5.00;86.80
47813;DHT22;34221;45.296;9.516;2023-02-01T00:02:24;5.00;86.80
47813;DHT22;34221;45.296;9.516;2023-02-01T00:02:39;5.10;86.40
47813;DHT22;34221;45.296;9.516;2023-02-01T00:02:55;5.00;86.30
47813;DHT22;34221;45.296;9.516;2023-02-01T00:03:10;5.00;86.10
47813;DHT22;34221;45.296;9.516;2023-02-01T00:03:27;5.10;86.10
47813;DHT22;34221;45.296;9.516;2023-02-01T00:03:42;5.10;86.40
47813;DHT22;34221;45.296;9.516;2023-02-01T00:03:57;5.10;86.40
47813;DHT22;34221;45.296;9.516;2023-02-01T00:04:12;5.10;86.10
47813;DHT22;34221;45.296;9.516;2023-02-01T00:04:27;5.10;85.80
47813;DHT22;34221;45.296;9.516;2023-02-01T00:04:42;5.10;85.80
47813;DHT22;34221;45.296;9.516;2023-02-01T00:04:56;5.10;85.70
47813;DHT22;34221;45.296;9.516;2023-02-01T00:05:13;5.10;85.70
47813;DHT22;34221;45.296;9.516;2023-02-01T00:05:28;5.10;85.80
47813;DHT22;34221;45.296;9.516;2023-02-01T00:05:43;5.10;85.80
47813;DHT22;34221;45.296;9.516;2023-02-01T00:05:58;5.10;85.70
47813;DHT22;34221;45.296;9.516;2023-02-01T00:06:14;5.10;85.60
47813;DHT22;34221;45.296;9.516;2023-02-01T00:06:29;5.20;85.60
47813;DHT22;34221;45.296;9.516;2023-02-01T00:06:44;5.10;85.50
47813;DHT22;34221;45.296;9.516;2023-02-01T00:06:58;5.10;85.30
47813;DHT22;34221;45.296;9.516;2023-02-01T00:07:13;5.10;85.40
47813;DHT22;34221;45.296;9.516;2023-02-01T00:07:28;5.10;85.60
47813;DHT22;34221;45.296;9.516;2023-02-01T00:07:47;5.10;85.40
47813;DHT22;34221;45.296;9.516;2023-02-01T00:08:04;5.10;85.40
47813;DHT22;34221;45.296;9.516;2023-02-01T00:08:19;5.10;85.30
47813;DHT22;34221;45.296;9.516;2023-02-01T00:08:34;5.20;85.50
47813;DHT22;34221;45.296;9.516;2023-02-01T00:08:53;5.20;85.40
47813;DHT22;34221;45.296;9.516;2023-02-01T00:09:08;5.20;85.20
47813;DHT22;34221;45.296;9.516;2023-02-01T00:09:24;5.20;85.20
47813;DHT22;34221;45.296;9.516;2023-02-01T00:09:38;5.20;85.40
47813;DHT22;34221;45.296;9.516;2023-02-01T00:09:53;5.20;85.20
47813;DHT22;34221;45.296;9.516;2023-02-01T00:10:09;5.20;85.00
47813;DHT22;34221;45.296;9.516;2023-02-01T00:10:24;5.20;84.80
47813;DHT22;34221;45.296;9.516;2023-02-01T00:10:39;5.10;85.00
47813;DHT22;34221;45.296;9.516;2023-02-01T00:11:06;5.20;85.20
47813;DHT22;34221;45.296;9.516;2023-02-01T00:11:23;5.10;84.90
47813;DHT22;34221;45.296;9.516;2023-02-01T00:11:38;5.10;84.80
47813;DHT22;34221;45.296;9.516;2023-02-01T00:11:53;5.10;84.70
47813;DHT22;34221;45.296;9.516;2023-02-01T00:12:08;5.10;84.70
47813;DHT22;34221;45.296;9.516;2023-02-01T00:12:23;5.10;84.60
47813;DHT22;34221;45.296;9.516;2023-02-01T00:12:38;5.10;84.70
47813;DHT22;34221;45.296;9.516;2023-02-01T00:12:53;5.10;84.90
47813;DHT22;34221;45.296;9.516;2023-02-01T00:13:08;5.10;85.20
47813;DHT22;34221;45.296;9.516;2023-02-01T00:13:23;5.10;85.40
47813;DHT22;34221;45.296;9.516;2023-02-01T00:13:39;5.10;85.20
47813;DHT22;34221;45.296;9.516;2023-02-01T00:13:56;5.10;85.20
47813;DHT22;34221;45.296;9.516;2023-02-01T00:14:11;5.10;85.10
47813;DHT22;34221;45.296;9.516;2023-02-01T00:14:26;5.10;85.20
47813;DHT22;34221;45.296;9.516;2023-02-01T00:14:42;5.10;85.10
47813;DHT22;34221;45.296;9.516;2023-02-01T00:14:57;5.10;84.70
47813;DHT22;34221;45.296;9.516;2023-02-01T00:15:12;5.10;84.70
47813;DHT22;34221;45.296;9.516;2023-02-01T00:15:27;5.10;84.70
47813;DHT22;34221;45.296;9.516;2023-02-01T00:15:42;5.10;84.70
47813;DHT22;34221;45.296;9.516;2023-02-01T00:16:13;5.00;84.70
47813;DHT22;34221;45.296;9.516;2023-02-01T00:16:32;5.10;84.90
47813;DHT22;34221;45.296;9.516;2023-02-01T00:16:47;5.10;84.90
47813;DHT22;34221;45.296;9.516;2023-02-01T00:17:02;5.10;84.90
47813;DHT22;34221;45.296;9.516;2023-02-01T00:17:17;5.10;84.70
47813;DHT22;34221;45.296;9.516;2023-02-01T00:17:31;5.00;84.60
47813;DHT22;34221;45.296;9.516;2023-02-01T00:17:46;5.00;84.60
47813;DHT22;34221;45.296;9.516;2023-02-01T00:18:01;4.90;84.40
47813;DHT22;34221;45.296;9.516;2023-02-01T00:18:16;4.90;84.50
47813;DHT22;34221;45.296;9.516;2023-02-01T00:18:31;4.90;84.70
47813;DHT22;34221;45.296;9.516;2023-02-01T00:18:49;4.90;84.70
47813;DHT22;34221;45.296;9.516;2023-02-01T00:19:09;4.90;84.60
47813;DHT22;34221;45.296;9.516;2023-02-01T00:19:25;4.90;85.00
47813;DHT22;34221;45.296;9.516;2023-02-01T00:19:40;4.90;85.20
47813;DHT22;34221;45.296;9.516;2023-02-01T00:19:55;4.90;85.20
47813;DHT22;34221;45.296;9.516;2023-02-01T00:20:10;4.90;85.10
47813;DHT22;34221;45.296;9.516;2023-02-01T00:20:25;4.80;85.00
47813;DHT22;34221;45.296;9.516;2023-02-01T00:20:45;4.80;84.90
47813;DHT22;34221;45.296;9.516;2023-02-01T00:21:01;4.80;85.20
47813;DHT22;34221;45.296;9.516;2023-02-01T00:21:20;4.80;85.40
47813;DHT22;34221;45.296;9.516;2023-02-01T00:21:35;4.80;85.40
47813;DHT22;34221;45.296;9.516;2023-02-01T00:21:50;4.80;85.20
47813;DHT22;34221;45.296;9.516;2023-02-01T00:22:05;4.80;85.20
47813;DHT22;34221;45.296;9.516;2023-02-01T00:22:20;4.80;85.40
47813;DHT22;34221;45.296;9.516;2023-02-01T00:22:35;4.80;85.70
47813;DHT22;34221;45.296;9.516;2023-02-01T00:22:50;4.80;85.80
47813;DHT22;34221;45.296;9.516;2023-02-01T00:23:05;4.80;85.90
47813;DHT22;34221;45.296;9.516;2023-02-01T00:23:22;4.80;85.70
47813;DHT22;34221;45.296;9.516;2023-02-01T00:23:37;4.80;85.80
47813;DHT22;34221;45.296;9.516;2023-02-01T00:23:53;4.80;85.90
47813;DHT22;34221;45.296;9.516;2023-02-01T00:24:10;4.80;86.00
47813;DHT22;34221;45.296;9.516;2023-02-01T00:24:25;4.80;85.90
47813;DHT22;34221;45.296;9.516;2023-02-01T00:24:40;4.80;85.90
47813;DHT22;34221;45.296;9.516;2023-02-01T00:24:55;4.80;85.90
47813;DHT22;34221;45.296;9.516;2023-02-01T00:25:10;4.70;85.80
47813;DHT22;34221;45.296;9.516;2023-02-01T00:25:25;4.80;85.90
47813;DHT22;34221;45.296;9.516;2023-02-01T00:25:40;4.80;86.00
47813;DHT22;34221;45.296;9.516;2023-02-01T00:25:55;4.80;86.00
47813;DHT22;34221;45.296;9.516;2023-02-01T00:26:18;4.80;86.10
47813;DHT22;34221;45.296;9.516;2023-02-01T00:26:38;4.80;86.20
47813;DHT22;34221;45.296;9.516;2023-02-01T00:26:55;4.80;86.50
47813;DHT22;34221;45.296;9.516;2023-02-01T00:27:10;4.80;86.40
47813;DHT22;34221;45.296;9.516;2023-02-01T00:27:26;4.80;86.40
47813;DHT22;34221;45.296;9.516;2023-02-01T00:27:40;4.80;86.40
47813;DHT22;34221;45.296;9.516;2023-02-01T00:27:55;4.80;86.50
47813;DHT22;34221;45.296;9.516;2023-02-01T00:28:13;4.80;86.50
47813;DHT22;34221;45.296;9.516;2023-02-01T00:28:28;4.80;86.70
47813;DHT22;34221;45.296;9.516;2023-02-01T00:28:43;4.80;86.70
47813;DHT22;34221;45.296;9.516;2023-02-01T00:29:00;4.80;86.70
47813;DHT22;34221;45.296;9.516;2023-02-01T00:29:18;4.80;86.60
47813;DHT22;34221;45.296;9.516;2023-02-01T00:29:34;4.80;86.60
47813;DHT22;34221;45.296;9.516;2023-02-01T00:29:49;4.80;86.50
47813;DHT22;34221;45.296;9.516;2023-02-01T00:30:04;4.80;86.60
47813;DHT22;34221;45.296;9.516;2023-02-01T00:30:20;4.90;86.60
47813;DHT22;34221;45.296;9.516;2023-02-01T00:30:35;4.90;86.60
47813;DHT22;34221;45.296;9.516;2023-02-01T00:30:56;4.90;86.70
47813;DHT22;34221;45.296;9.516;2023-02-01T00:31:15;4.90;86.50
47813;DHT22;34221;45.296;9.516;2023-02-01T00:31:30;4.90;86.40
47813;DHT22;34221;45.296;9.516;2023-02-01T00:31:45;4.90;86.30
47813;DHT22;34221;45.296;9.516;2023-02-01T00:32:00;4.90;86.40
47813;DHT22;34221;45.296;9.516;2023-02-01T00:32:16;4.90;86.40
47813;DHT22;34221;45.296;9.516;2023-02-01T00:32:31;4.90;86.40
47813;DHT22;34221;45.296;9.516;2023-02-01T00:32:46;4.90;86.30
47813;DHT22;34221;45.296;9.516;2023-02-01T00:33:01;5.00;86.40
47813;DHT22;34221;45.296;9.516;2023-02-01T00:33:16;4.90;86.30
47813;DHT22;34221;45.296;9.516;2023-02-01T00:33:32;4.90;86.40
47813;DHT22;34221;45.296;9.516;2023-02-01T00:33:49;4.90;86.30
47813;DHT22;34221;45.296;9.516;2023-02-01T00:34:04;4.90;86.30
47813;DHT22;34221;45.296;9.516;2023-02-01T00:34:20;4.90;86.20
47813;DHT22;34221;45.296;9.516;2023-02-01T00:34:36;4.90;86.20
47813;DHT22;34221;45.296;9.516;2023-02-01T00:34:50;4.90;86.00
47813;DHT22;34221;45.296;9.516;2023-02-01T00:35:07;5.00;86.10
47813;DHT22;34221;45.296;9.516;2023-02-01T00:35:23;4.90;86.20
47813;DHT22;34221;45.296;9.516;2023-02-01T00:35:37;5.00;86.30
47813;DHT22;34221;45.296;9.516;2023-02-01T00:36:00;5.00;86.20
47813;DHT22;34221;45.296;9.516;2023-02-01T00:36:16;5.00;86.30
47813;DHT22;34221;45.296;9.516;2023-02-01T00:36:32;5.00;86.10
47813;DHT22;34221;45.296;9.516;2023-02-01T00:36:47;5.00;86.00
47813;DHT22;34221;45.296;9.516;2023-02-01T00:37:02;5.00;85.90
47813;DHT22;34221;45.296;9.516;2023-02-01T00:37:17;5.00;85.70
47813;DHT22;34221;45.296;9.516;2023-02-01T00:37:32;5.00;85.70
47813;DHT22;34221;45.296;9.516;2023-02-01T00:37:47;5.00;85.70
47813;DHT22;34221;45.296;9.516;2023-02-01T00:38:02;5.00;85.80
47813;DHT22;34221;45.296;9.516;2023-02-01T00:38:17;5.00;85.90
47813;DHT22;34221;45.296;9.516;2023-02-01T00:38:34;5.00;85.80
47813;DHT22;34221;45.296;9.516;2023-02-01T00:38:51;5.00;86.10
47813;DHT22;34221;45.296;9.516;2023-02-01T00:39:06;5.00;86.30
47813;DHT22;34221;45.296;9.516;2023-02-01T00:39:21;4.90;85.80
47813;DHT22;34221;45.296;9.516;2023-02-01T00:39:36;5.00;85.80
47813;DHT22;34221;45.296;9.516;2023-02-01T00:39:51;5.00;86.00
47813;DHT22;34221;45.296;9.516;2023-02-01T00:40:07;5.00;86.00
47813;DHT22;34221;45.296;9.516;2023-02-01T00:40:22;5.00;86.10
47813;DHT22;34221;45.296;9.516;2023-02-01T00:40:37;5.00;86.10
47813;DHT22;34221;45.296;9.516;2023-02-01T00:40:52;5.00;86.00
47813;DHT22;34221;45.296;9.516;2023-02-01T00:41:12;5.00;85.90
47813;DHT22;34221;45.296;9.516;2023-02-01T00:41:29;5.00;85.80
47813;DHT22;34221;45.296;9.516;2023-02-01T00:41:44;5.00;85.90
47813;DHT22;34221;45.296;9.516;2023-02-01T00:42:00;5.00;86.00
47813;DHT22;34221;45.296;9.516;2023-02-01T00:42:16;5.00;85.90
47813;DHT22;34221;45.296;9.516;2023-02-01T00:42:31;5.00;85.90
47813;DHT22;34221;45.296;9.516;2023-02-01T00:42:46;5.00;85.90
47813;DHT22;34221;45.296;9.516;2023-02-01T00:43:01;5.00;86.10
47813;DHT22;34221;45.296;9.516;2023-02-01T00:43:16;5.00;86.00
47813;DHT22;34221;45.296;9.516;2023-02-01T00:43:32;5.00;86.00
47813;DHT22;34221;45.296;9.516;2023-02-01T00:43:48;5.00;86.00
47813;DHT22;34221;45.296;9.516;2023-02-01T00:44:04;5.00;86.30
47813;DHT22;34221;45.296;9.516;2023-02-01T00:44:19;5.00;86.30
47813;DHT22;34221;45.296;9.516;2023-02-01T00:44:34;5.00;86.20
47813;DHT22;34221;45.296;9.516;2023-02-01T00:44:49;5.00;86.00
47813;DHT22;34221;45.296;9.516;2023-02-01T00:45:05;5.00;86.00
47813;DHT22;34221;45.296;9.516;2023-02-01T00:45:20;5.00;86.00
47813;DHT22;34221;45.296;9.516;2023-02-01T00:45:35;5.00;86.10
47813;DHT22;34221;45.296;9.516;2023-02-01T00:45:50;5.00;85.90
47813;DHT22;34221;45.296;9.516;2023-02-01T00:46:05;5.00;86.00
47813;DHT22;34221;45.296;9.516;2023-02-01T00:46:20;5.00;86.00
47813;DHT22;34221;45.296;9.516;2023-02-01T00:46:36;5.00;86.10
47813;DHT22;34221;45.296;9.516;2023-02-01T00:46:51;5.00;86.10
47813;DHT22;34221;45.296;9.516;2023-02-01T00:47:06;5.00;85.90
47813;DHT22;34221;45.296;9.516;2023-02-01T00:47:21;5.00;86.10
47813;DHT22;34221;45.296;9.516;2023-02-01T00:47:36;5.00;86.00
47813;DHT22;34221;45.296;9.516;2023-02-01T00:47:51;5.10;86.10
47813;DHT22;34221;45.296;9.516;2023-02-01T00:48:06;5.10;85.90
47813;DHT22;34221;45.296;9.516;2023-02-01T00:48:21;5.00;85.80
47813;DHT22;34221;45.296;9.516;2023-02-01T00:48:36;5.10;85.90
47813;DHT22;34221;45.296;9.516;2023-02-01T00:48:51;5.00;85.70
47813;DHT22;34221;45.296;9.516;2023-02-01T00:49:06;5.10;85.80
47813;DHT22;34221;45.296;9.516;2023-02-01T00:49:23;5.00;85.90
47813;DHT22;34221;45.296;9.516;2023-02-01T00:49:38;5.10;85.90
47813;DHT22;34221;45.296;9.516;2023-02-01T00:49:53;5.00;85.80
47813;DHT22;34221;45.296;9.516;2023-02-01T00:50:09;5.10;85.90
47813;DHT22;34221;45.296;9.516;2023-02-01T00:50:24;5.00;85.70
47813;DHT22;34221;45.296;9.516;2023-02-01T00:50:43;5.10;85.70
47813;DHT22;34221;45.296;9.516;2023-02-01T00:51:03;5.10;85.70
47813;DHT22;34221;45.296;9.516;2023-02-01T00:51:22;5.10;85.90
47813;DHT22;34221;45.296;9.516;2023-02-01T00:51:39;5.00;85.70
47813;DHT22;34221;45.296;9.516;2023-02-01T00:51:54;5.10;85.80
47813;DHT22;34221;45.296;9.516;2023-02-01T00:52:09;5.00;85.80
47813;DHT22;34221;45.296;9.516;2023-02-01T00:52:24;5.10;85.90
47813;DHT22;34221;45.296;9.516;2023-02-01T00:52:39;5.00;85.80
47813;DHT22;34221;45.296;9.516;2023-02-01T00:52:54;5.00;86.60
47813;DHT22;34221;45.296;9.516;2023-02-01T00:53:10;5.10;86.10
47813;DHT22;34221;45.296;9.516;2023-02-01T00:53:26;5.00;86.00
47813;DHT22;34221;45.296;9.516;2023-02-01T00:53:42;5.10;86.20
47813;DHT22;34221;45.296;9.516;2023-02-01T00:53:57;5.00;86.10
47813;DHT22;34221;45.296;9.516;2023-02-01T00:54:12;5.10;86.10
47813;DHT22;34221;45.296;9.516;2023-02-01T00:54:27;5.10;86.30
47813;DHT22;34221;45.296;9.516;2023-02-01T00:54:42;5.10;86.10
47813;DHT22;34221;45.296;9.516;2023-02-01T00:54:57;5.10;86.10
47813;DHT22;34221;45.296;9.516;2023-02-01T00:55:12;5.10;86.20
47813;DHT22;34221;45.296;9.516;2023-02-01T00:55:27;5.10;86.10
47813;DHT22;34221;45.296;9.516;2023-02-01T00:55:45;5.10;86.10
47813;DHT22;34221;45.296;9.516;2023-02-01T00:56:01;5.10;86.00
47813;DHT22;34221;45.296;9.516;2023-02-01T00:56:17;5.10;86.00
47813;DHT22;34221;45.296;9.516;2023-02-01T00:56:32;5.10;86.00
47813;DHT22;34221;45.296;9.516;2023-02-01T00:56:48;5.10;86.20
47813;DHT22;34221;45.296;9.516;2023-02-01T00:57:03;5.10;86.20
47813;DHT22;34221;45.296;9.516;2023-02-01T00:57:18;5.10;86.20
47813;DHT22;34221;45.296;9.516;2023-02-01T00:57:32;5.10;86.10
47813;DHT22;34221;45.296;9.516;2023-02-01T00:57:48;5.10;86.00
47813;DHT22;34221;45.296;9.516;2023-02-01T00:58:03;5.10;86.10
47813;DHT22;34221;45.296;9.516;2023-02-01T00:58:20;5.10;86.10
47813;DHT22;34221;45.296;9.516;2023-02-01T00:58:35;5.10;86.00
47813;DHT22;34221;45.296;9.516;2023-02-01T00:58:50;5.10;86.10
47813;DHT22;34221;45.296;9.516;2023-02-01T00:59:05;5.10;86.00
47813;DHT22;34221;45.296;9.516;2023-02-01T00:59:20;5.10;86.10
47813;DHT22;34221;45.296;9.516;2023-02-01T00:59:35;5.20;86.10
47813;DHT22;34221;45.296;9.516;2023-02-01T00:59:50;5.20;86.10
47813;DHT22;34221;45.296;9.516;2023-02-01T01:00:05;5.20;86.10
47813;DHT22;34221;45.296;9.516;2023-02-01T01:00:21;5.10;86.10
47813;DHT22;34221;45.296;9.516;2023-02-01T01:00:36;5.20;86.10
47813;DHT22;34221;45.296;9.516;2023-02-01T01:01:21;5.20;86.10
47813;DHT22;34221;45.296;9.516;2023-02-01T01:01:38;5.20;86.00
47813;DHT22;34221;45.296;9.516;2023-02-01T01:01:53;5.20;86.10
47813;DHT22;34221;45.296;9.516;2023-02-01T01:02:08;5.20;86.10
47813;DHT22;34221;45.296;9.516;2023-02-01T01:02:24;5.20;86.10
47813;DHT22;34221;45.296;9.516;2023-02-01T01:02:41;5.20;86.00
47813;DHT22;34221;45.296;9.516;2023-02-01T01:02:56;5.20;85.90
47813;DHT22;34221;45.296;9.516;2023-02-01T01:03:11;5.20;85.90
47813;DHT22;34221;45.296;9.516;2023-02-01T01:03:34;5.20;86.00
47813;DHT22;34221;45.296;9.516;2023-02-01T01:03:53;5.20;85.80
47813;DHT22;34221;45.296;9.516;2023-02-01T01:04:10;5.20;85.90
47813;DHT22;34221;45.296;9.516;2023-02-01T01:04:25;5.20;86.30
47813;DHT22;34221;45.296;9.516;2023-02-01T01:04:40;5.30;86.10
47813;DHT22;34221;45.296;9.516;2023-02-01T01:04:55;5.20;86.10
47813;DHT22;34221;45.296;9.516;2023-02-01T01:05:10;5.30;85.90
47813;DHT22;34221;45.296;9.516;2023-02-01T01:05:25;5.20;85.70
47813;DHT22;34221;45.296;9.516;2023-02-01T01:05:42;5.30;85.80
47813;DHT22;34221;45.296;9.516;2023-02-01T01:05:57;5.20;85.90
47813;DHT22;34221;45.296;9.516;2023-02-01T01:06:15;5.30;85.80
47813;DHT22;34221;45.296;9.516;2023-02-01T01:06:32;5.30;85.70
47813;DHT22;34221;45.296;9.516;2023-02-01T01:06:48;5.30;85.60
47813;DHT22;34221;45.296;9.516;2023-02-01T01:07:02;5.30;85.50
47813;DHT22;34221;45.296;9.516;2023-02-01T01:07:18;5.30;85.50
47813;DHT22;34221;45.296;9.516;2023-02-01T01:07:34;5.30;85.60
47813;DHT22;34221;45.296;9.516;2023-02-01T01:07:49;5.30;85.70
47813;DHT22;34221;45.296;9.516;2023-02-01T01:08:04;5.30;85.80
47813;DHT22;34221;45.296;9.516;2023-02-01T01:08:19;5.30;85.70
47813;DHT22;34221;45.296;9.516;2023-02-01T01:08:35;5.30;85.60
47813;DHT22;34221;45.296;9.516;2023-02-01T01:08:52;5.30;85.50
47813;DHT22;34221;45.296;9.516;2023-02-01T01:09:09;5.30;85.50
47813;DHT22;34221;45.296;9.516;2023-02-01T01:09:24;5.30;85.70
47813;DHT22;34221;45.296;9.516;2023-02-01T01:09:39;5.30;85.70
47813;DHT22;34221;45.296;9.516;2023-02-01T01:09:54;5.30;85.60
47813;DHT22;34221;45.296;9.516;2023-02-01T01:10:09;5.30;85.50
47813;DHT22;34221;45.296;9.516;2023-02-01T01:10:24;5.30;85.60
47813;DHT22;34221;45.296;9.516;2023-02-01T01:10:41;5.30;85.90
47813;DHT22;34221;45.296;9.516;2023-02-01T01:10:56;5.30;85.60
47813;DHT22;34221;45.296;9.516;2023-02-01T01:11:15;5.30;85.60
47813;DHT22;34221;45.296;9.516;2023-02-01T01:11:34;5.30;85.40
47813;DHT22;34221;45.296;9.516;2023-02-01T01:11:51;5.30;85.40
47813;DHT22;34221;45.296;9.516;2023-02-01T01:12:07;5.30;85.40
47813;DHT22;34221;45.296;9.516;2023-02-01T01:12:22;5.30;85.50
47813;DHT22;34221;45.296;9.516;2023-02-01T01:12:37;5.30;85.30
47813;DHT22;34221;45.296;9.516;2023-02-01T01:12:52;5.30;85.60
47813;DHT22;34221;45.296;9.516;2023-02-01T01:13:07;5.30;85.70
47813;DHT22;34221;45.296;9.516;2023-02-01T01:13:22;5.30;86.60
47813;DHT22;34221;45.296;9.516;2023-02-01T01:13:38;5.30;85.80
47813;DHT22;34221;45.296;9.516;2023-02-01T01:13:54;5.30;85.60
47813;DHT22;34221;45.296;9.516;2023-02-01T01:14:10;5.30;85.50
47813;DHT22;34221;45.296;9.516;2023-02-01T01:14:25;5.30;85.20
47813;DHT22;34221;45.296;9.516;2023-02-01T01:14:40;5.30;85.20
47813;DHT22;34221;45.296;9.516;2023-02-01T01:14:55;5.30;85.30
47813;DHT22;34221;45.296;9.516;2023-02-01T01:15:11;5.30;85.30
47813;DHT22;34221;45.296;9.516;2023-02-01T01:15:27;5.30;85.40
47813;DHT22;34221;45.296;9.516;2023-02-01T01:15:42;5.30;85.20
47813;DHT22;34221;45.296;9.516;2023-02-01T01:16:00;5.30;85.10
47813;DHT22;34221;45.296;9.516;2023-02-01T01:16:18;5.30;85.10
47813;DHT22;34221;45.296;9.516;2023-02-01T01:16:34;5.30;85.30
47813;DHT22;34221;45.296;9.516;2023-02-01T01:16:49;5.30;85.40
47813;DHT22;34221;45.296;9.516;2023-02-01T01:17:05;5.30;85.20
47813;DHT22;34221;45.296;9.516;2023-02-01T01:17:20;5.30;85.40
47813;DHT22;34221;45.296;9.516;2023-02-01T01:17:35;5.30;85.20
47813;DHT22;34221;45.296;9.516;2023-02-01T01:17:49;5.40;85.00
47813;DHT22;34221;45.296;9.516;2023-02-01T01:18:05;5.30;85.00
47813;DHT22;34221;45.296;9.516;2023-02-01T01:18:20;5.30;85.00
47813;DHT22;34221;45.296;9.516;2023-02-01T01:18:36;5.30;85.10
47813;DHT22;34221;45.296;9.516;2023-02-01T01:18:51;5.40;85.20
47813;DHT22;34221;45.296;9.516;2023-02-01T01:19:06;5.40;85.30
47813;DHT22;34221;45.296;9.516;2023-02-01T01:19:21;5.40;85.20
47813;DHT22;34221;45.296;9.516;2023-02-01T01:19:36;5.40;84.90
47813;DHT22;34221;45.296;9.516;2023-02-01T01:19:51;5.40;84.90
47813;DHT22;34221;45.296;9.516;2023-02-01T01:20:07;5.40;85.00
47813;DHT22;34221;45.296;9.516;2023-02-01T01:20:22;5.40;85.00
47813;DHT22;34221;45.296;9.516;2023-02-01T01:20:39;5.40;85.10
47813;DHT22;34221;45.296;9.516;2023-02-01T01:20:55;5.40;85.00
47813;DHT22;34221;45.296;9.516;2023-02-01T01:21:12;5.40;85.20
47813;DHT22;34221;45.296;9.516;2023-02-01T01:21:29;5.40;85.20
47813;DHT22;34221;45.296;9.516;2023-02-01T01:21:44;5.40;85.10
47813;DHT22;34221;45.296;9.516;2023-02-01T01:21:59;5.40;85.20
47813;DHT22;34221;45.296;9.516;2023-02-01T01:22:14;5.40;85.20
47813;DHT22;34221;45.296;9.516;2023-02-01T01:23:05;5.40;84.90
47813;DHT22;34221;45.296;9.516;2023-02-01T01:23:20;5.40;84.80
47813;DHT22;34221;45.296;9.516;2023-02-01T01:23:36;5.40;84.60
47813;DHT22;34221;45.296;9.516;2023-02-01T01:23:51;5.40;84.50
47813;DHT22;34221;45.296;9.516;2023-02-01T01:24:06;5.40;84.60
47813;DHT22;34221;45.296;9.516;2023-02-01T01:24:21;5.40;84.60
47813;DHT22;34221;45.296;9.516;2023-02-01T01:24:36;5.40;84.70
47813;DHT22;34221;45.296;9.516;2023-02-01T01:24:51;5.40;84.80
47813;DHT22;34221;45.296;9.516;2023-02-01T01:25:06;5.40;84.80
47813;DHT22;34221;45.296;9.516;2023-02-01T01:25:21;5.50;84.90
47813;DHT22;34221;45.296;9.516;2023-02-01T01:25:38;5.40;84.80
47813;DHT22;34221;45.296;9.516;2023-02-01T01:25:53;5.40;85.00
47813;DHT22;34221;45.296;9.516;2023-02-01T01:26:12;5.50;85.40
47813;DHT22;34221;45.296;9.516;2023-02-01T01:26:29;5.50;85.20
47813;DHT22;34221;45.296;9.516;2023-02-01T01:26:45;5.40;84.80
47813;DHT22;34221;45.296;9.516;2023-02-01T01:27:00;5.50;84.70
47813;DHT22;34221;45.296;9.516;2023-02-01T01:27:15;5.50;84.70
47813;DHT22;34221;45.296;9.516;2023-02-01T01:27:30;5.50;84.80
47813;DHT22;34221;45.296;9.516;2023-02-01T01:27:45;5.50;84.80
47813;DHT22;34221;45.296;9.516;2023-02-01T01:28:00;5.50;84.70
47813;DHT22;34221;45.296;9.516;2023-02-01T01:28:15;5.50;84.60
47813;DHT22;34221;45.296;9.516;2023-02-01T01:28:30;5.50;84.50
47813;DHT22;34221;45.296;9.516;2023-02-01T01:28:45;5.50;84.50
47813;DHT22;34221;45.296;9.516;2023-02-01T01:29:00;5.50;84.50
47813;DHT22;34221;45.296;9.516;2023-02-01T01:29:15;5.50;84.30
47813;DHT22;34221;45.296;9.516;2023-02-01T01:29:30;5.50;84.00
47813;DHT22;34221;45.296;9.516;2023-02-01T01:29:45;5.50;84.20
47813;DHT22;34221;45.296;9.516;2023-02-01T01:30:00;5.50;84.20
47813;DHT22;34221;45.296;9.516;2023-02-01T01:30:15;5.50;84.30
47813;DHT22;34221;45.296;9.516;2023-02-01T01:30:30;5.40;84.10
47813;DHT22;34221;45.296;9.516;2023-02-01T01:30:45;5.50;84.00
47813;DHT22;34221;45.296;9.516;2023-02-01T01:31:01;5.50;84.00
47813;DHT22;34221;45.296;9.516;2023-02-01T01:31:17;5.40;84.10
47813;DHT22;34221;45.296;9.516;2023-02-01T01:31:33;5.40;84.10
47813;DHT22;34221;45.296;9.516;2023-02-01T01:31:48;5.40;84.30
47813;DHT22;34221;45.296;9.516;2023-02-01T01:32:03;5.40;84.40
47813;DHT22;34221;45.296;9.516;2023-02-01T01:32:18;5.40;84.30
47813;DHT22;34221;45.296;9.516;2023-02-01T01:32:34;5.40;84.20
47813;DHT22;34221;45.296;9.516;2023-02-01T01:32:49;5.40;84.40
47813;DHT22;34221;45.296;9.516;2023-02-01T01:33:04;5.40;84.40
47813;DHT22;34221;45.296;9.516;2023-02-01T01:33:19;5.50;84.40
47813;DHT22;34221;45.296;9.516;2023-02-01T01:33:34;5.50;84.50
47813;DHT22;34221;45.296;9.516;2023-02-01T01:33:50;5.40;84.50
47813;DHT22;34221;45.296;9.516;2023-02-01T01:34:07;5.40;84.30
47813;DHT22;34221;45.296;9.516;2023-02-01T01:34:23;5.40;84.30
47813;DHT22;34221;45.296;9.516;2023-02-01T01:34:38;5.40;84.50
47813;DHT22;34221;45.296;9.516;2023-02-01T01:34:54;5.40;84.50
47813;DHT22;34221;45.296;9.516;2023-02-01T01:35:09;5.40;84.40
47813;DHT22;34221;45.296;9.516;2023-02-01T01:35:24;5.40;84.30
47813;DHT22;34221;45.296;9.516;2023-02-01T01:35:39;5.40;84.40
47813;DHT22;34221;45.296;9.516;2023-02-01T01:35:55;5.40;84.50
47813;DHT22;34221;45.296;9.516;2023-02-01T01:36:11;5.40;84.60
47813;DHT22;34221;45.296;9.516;2023-02-01T01:36:27;5.40;84.50
47813;DHT22;34221;45.296;9.516;2023-02-01T01:36:43;5.40;84.60
47813;DHT22;34221;45.296;9.516;2023-02-01T01:36:58;5.40;84.70
47813;DHT22;34221;45.296;9.516;2023-02-01T01:37:13;5.40;84.80
47813;DHT22;34221;45.296;9.516;2023-02-01T01:37:27;5.40;84.80
47813;DHT22;34221;45.296;9.516;2023-02-01T01:37:42;5.40;84.70
47813;DHT22;34221;45.296;9.516;2023-02-01T01:37:59;5.40;84.70
47813;DHT22;34221;45.296;9.516;2023-02-01T01:38:14;5.40;85.00
47813;DHT22;34221;45.296;9.516;2023-02-01T01:38:29;5.40;84.90
47813;DHT22;34221;45.296;9.516;2023-02-01T01:38:44;5.40;84.90
47813;DHT22;34221;45.296;9.516;2023-02-01T01:38:59;5.40;84.90
47813;DHT22;34221;45.296;9.516;2023-02-01T01:39:14;5.40;84.90
47813;DHT22;34221;45.296;9.516;2023-02-01T01:39:29;5.40;85.00
47813;DHT22;34221;45.296;9.516;2023-02-01T01:39:44;5.40;85.00
47813;DHT22;34221;45.296;9.516;2023-02-01T01:39:59;5.40;84.90
47813;DHT22;34221;45.296;9.516;2023-02-01T01:40:14;5.40;85.00
47813;DHT22;34221;45.296;9.516;2023-02-01T01:40:30;5.40;84.90
47813;DHT22;34221;45.296;9.516;2023-02-01T01:40:47;5.40;85.00
47813;DHT22;34221;45.296;9.516;2023-02-01T01:41:05;5.40;84.80
47813;DHT22;34221;45.296;9.516;2023-02-01T01:41:25;5.40;84.90
47813;DHT22;34221;45.296;9.516;2023-02-01T01:41:49;5.40;84.90
47813;DHT22;34221;45.296;9.516;2023-02-01T01:42:11;5.40;84.90